Terminal Aerodrome Forecast
Issued by NWS

Home | Current Version | Previous Version | Text Only | Print | Product List | Glossary On
Versions: 1 2 3 4 5 6 7 8 9 10 11 12 13 14 15 16 17 18 19 20 21 22 23 24 25 26
977
FTUS44 KFWD 240733 AAA
TAFGKY
TAF AMD
KGKY 240733Z 2408/2506 16028G38KT P6SM BKN025 BKN250
     FM240900 17018KT P6SM BKN025 BKN250
     FM241100 19016KT P6SM VCSH OVC025
     FM241600 21020G30KT P6SM BKN035
     FM241900 23020G30KT P6SM SKC
     FM250000 20020KT P6SM SKC
     FM250500 29015KT P6SM SKC=

USA.gov is the U.S. government's official web portal to all federal, state and local government web resources and services.